WetterOnline ( https://www.wetteronline.at )

Wetter aktuell Grevesmühlen

Aktuelles Wetter: Boltenhagen (17m)

6-stündlich | Neueste Meldungen
Ortszeit Temperatur Wetter
Di, 10.12. 7:00 3.4° C wolkenlos
Di, 10.12. 1:00 4.6° C wolkenlos
Mo, 09.12. 19:00 5.9° C leicht bewölkt
Mo, 09.12. 13:00 7.6° C bewölkt
Mo, 09.12. 7:00 4.5° C wolkenlos
Mo, 09.12. 1:00 6.5° C bewölkt
So, 08.12. 19:00 7.2° C leicht bewölkt
So, 08.12. 13:00 8.7° C Sprühregen
Ortszeit Temperatur Wetter
Di, 10.12. 11:30 4.1° C leicht bewölkt
Di, 10.12. 11:20 4.1° C leicht bewölkt
Di, 10.12. 11:10 3.9° C leicht bewölkt
Di, 10.12. 11:00 3.9° C wolkenlos
Di, 10.12. 10:50 3.9° C wolkenlos
Di, 10.12. 10:40 3.6° C wolkenlos
Di, 10.12. 10:30 3.0° C wolkenlos
Di, 10.12. 10:00 2.9° C wolkig
Di, 10.12. 9:30 2.5° C wolkig
Di, 10.12. 9:00 2.1° C wolkenlos
Di, 10.12. 8:30 2.4° C wolkenlos
Ortszeit Relative Feuchte Sichtweite
Di, 10.12. 7:00 78% 30 km
Di, 10.12. 1:00 73% 45 km
Mo, 09.12. 19:00 83% 35 km
Mo, 09.12. 13:00 76% 50 km
Mo, 09.12. 7:00 89% 35 km
Mo, 09.12. 1:00 83% 25 km
So, 08.12. 19:00 86% 40 km
So, 08.12. 13:00 90% 30 km
Ortszeit Relative Feuchte Sichtweite
Di, 10.12. 11:30 78% 29 km
Di, 10.12. 11:20 78% -
Di, 10.12. 11:10 77% -
Di, 10.12. 11:00 77% 30 km
Di, 10.12. 10:50 77% -
Di, 10.12. 10:40 77% -
Di, 10.12. 10:30 80% 35 km
Di, 10.12. 10:00 81% 30 km
Di, 10.12. 9:30 83% 30 km
Di, 10.12. 9:00 85% 28 km
Di, 10.12. 8:30 84% 27 km
Ortszeit Niederschlagsmenge Niederschlagsart
Di, 10.12. 7:00 0.0 l/m2 in 12 Std. -
Di, 10.12. 1:00 0.0 l/m2 in 6 Std. -
Mo, 09.12. 19:00 0.2 l/m2 in 12 Std. Regen
Mo, 09.12. 13:00 0.0 l/m2 in 6 Std. -
Mo, 09.12. 7:00 0.3 l/m2 in 12 Std. Regen
Mo, 09.12. 1:00 0.1 l/m2 in 6 Std. Regen
So, 08.12. 19:00 0.8 l/m2 in 12 Std. Regen
So, 08.12. 13:00 0.3 l/m2 in 6 Std. Regen
Ortszeit Niederschlagsmenge Niederschlagsart
Di, 10.12. 11:30 0.0 l/m2 in 1 Std. -
Di, 10.12. 11:20 keine Meldung -
Di, 10.12. 11:10 keine Meldung -
Di, 10.12. 11:00 0.0 l/m2 in 1 Std. -
Di, 10.12. 10:50 keine Meldung -
Di, 10.12. 10:40 keine Meldung -
Di, 10.12. 10:30 0.0 l/m2 in 1 Std. -
Di, 10.12. 10:00 0.0 l/m2 in 1 Std. -
Di, 10.12. 9:30 0.0 l/m2 in 1 Std. -
Di, 10.12. 9:00 0.0 l/m2 in 1 Std. -
Di, 10.12. 8:30 0.0 l/m2 in 1 Std. -
Ortszeit Stärke Spitze Richtung
km/h Bft. km/h Grad Sektor
Di, 10.12. 7:00 20 4 43 270° W
Di, 10.12. 1:00 30 5 54 270° W
Mo, 09.12. 19:00 26 4 43 260° W
Mo, 09.12. 13:00 24 4 41 220° SW
Mo, 09.12. 7:00 22 4 54 200° S
Mo, 09.12. 1:00 30 5 52 210° SW
So, 08.12. 19:00 22 4 67 230° SW
So, 08.12. 13:00 37 5 69 210° SW
Ortszeit Stärke Spitze Richtung
km/h Bft. km/h Grad Sektor
Di, 10.12. 11:30 15 3 22 210° SW
Di, 10.12. 11:20 15 3 - 210° SW
Di, 10.12. 11:10 15 3 - 200° S
Di, 10.12. 11:00 13 3 19 210° SW
Di, 10.12. 10:50 13 3 - 210° SW
Di, 10.12. 10:40 13 3 - 210° SW
Di, 10.12. 10:30 13 3 19 200° S
Di, 10.12. 10:00 11 2 22 230° SW
Di, 10.12. 9:30 17 3 22 250° W
Di, 10.12. 9:00 14 3 25 250° W
Di, 10.12. 8:30 17 3 24 250° W
Ortszeit Untergrenze Bedeckung Gattung
total tief tief mittel hoch
Di, 10.12. 7:00 - 0/8 0/8 - - -
Di, 10.12. 1:00 - 0/8 0/8 - - -
Mo, 09.12. 19:00 2400 m 5/8 2/8 - - -
Mo, 09.12. 13:00 660 m 7/8 7/8 - - -
Mo, 09.12. 7:00 - 0/8 0/8 - - -
Mo, 09.12. 1:00 1110 m 7/8 7/8 - - -
So, 08.12. 19:00 990 m 3/8 3/8 - - -
So, 08.12. 13:00 240 m 8/8 8/8 - - -
Ortszeit Bedeckungsgrad in Achtel und Wolkenuntergrenze
Di, 10.12. 11:30 6(7800m)
Di, 10.12. 11:20 6(7800m)
Di, 10.12. 11:10 5(7800m)
Di, 10.12. 11:00 1(8100m)
Di, 10.12. 10:50 keine Wolken
Di, 10.12. 10:40 keine Wolken
Di, 10.12. 10:30 keine Wolken
Di, 10.12. 10:00 5(6300m)
Di, 10.12. 9:30 5(6600m)
Di, 10.12. 9:00 keine Wolken
Di, 10.12. 8:30 keine Wolken
Ortszeit Luftdruck NN (hPa) Tendenz (hPa in 3 Std.)
Di, 10.12. 7:00 1018 + 3,4
Di, 10.12. 1:00 1011 + 5,2
Mo, 09.12. 19:00 1001 + 4,0
Mo, 09.12. 13:00 995 + 0,7
Mo, 09.12. 7:00 993 + 0,3
Mo, 09.12. 1:00 992 - 0,7
So, 08.12. 19:00 993 + 1,1
So, 08.12. 13:00 993 - 2,3
Ortszeit Luftdruck NN (hPa) Tendenz (hPa in 3 Std.)
Di, 10.12. 11:30 1022 + 1,6
Di, 10.12. 11:20 1022 keine Meldung
Di, 10.12. 11:10 1021 keine Meldung
Di, 10.12. 11:00 1021 + 1,8
Di, 10.12. 10:50 1021 keine Meldung
Di, 10.12. 10:40 1021 keine Meldung
Di, 10.12. 10:30 1021 + 2,2
Di, 10.12. 10:00 1021 + 2,8
Di, 10.12. 9:30 1021 + 2,9
Di, 10.12. 9:00 1020 + 2,8
Di, 10.12. 8:30 1020 + 3,1
Ortszeit Schneehöhe (cm)
Di, 10.12. 7:00 0
Di, 10.12. 1:00 0
Mo, 09.12. 19:00 0
Mo, 09.12. 13:00 0
Mo, 09.12. 7:00 0
Mo, 09.12. 1:00 0
So, 08.12. 19:00 0
So, 08.12. 13:00 0
Ortszeit Schneehöhe (cm)
Di, 10.12. 11:30 0
Di, 10.12. 11:20 0
Di, 10.12. 11:10 0
Di, 10.12. 11:00 0
Di, 10.12. 10:50 0
Di, 10.12. 10:40 0
Di, 10.12. 10:30 0
Di, 10.12. 10:00 0
Di, 10.12. 9:30 0
Di, 10.12. 9:00 0
Di, 10.12. 8:30 0
Link zu dieser Seite / Seite empfehlen

Das Wetter in ...